createdAt,value
2023-08-29T00:01:15.858Z,100016.56
2023-08-29T00:04:22.715Z,100017.66
2023-08-29T00:07:29.385Z,100020.98
2023-08-29T00:10:36.463Z,100022.95
2023-08-29T00:13:42.614Z,100022.69
2023-08-29T00:16:48.053Z,100022.14
2023-08-29T00:19:53.398Z,100027.20
2023-08-29T00:22:59.565Z,100031.07
2023-08-29T00:26:07.121Z,100035.57
2023-08-29T00:29:11.909Z,100039.44
2023-08-29T00:32:19.593Z,100029.12
2023-08-29T00:35:25.661Z,100026.87
2023-08-29T00:38:33.772Z,100019.05
2023-08-29T00:41:40.030Z,100020.98
2023-08-29T00:44:47.320Z,100021.82
2023-08-29T00:47:54.452Z,100007.83
2023-08-29T00:51:01.128Z,100011.99
2023-08-29T00:54:08.573Z,100015.90
2023-08-29T00:57:14.542Z,100008.08
2023-08-29T01:00:22.115Z,99999.11
2023-08-29T01:03:30.219Z,99989.01
2023-08-29T01:06:36.705Z,99978.37
2023-08-29T01:09:41.962Z,99983.91
2023-08-29T01:13:06.127Z,99985.55
2023-08-29T01:16:13.705Z,99981.04
2023-08-29T01:19:25.237Z,99970.69
2023-08-29T01:23:12.271Z,99963.45
2023-08-29T01:26:30.236Z,99964.31
2023-08-29T01:29:36.460Z,99947.58
2023-08-29T01:32:42.713Z,99950.09
2023-08-29T01:35:51.564Z,99958.14
2023-08-29T01:38:58.639Z,99959.23
2023-08-29T01:42:05.639Z,99958.11
2023-08-29T01:45:11.649Z,99967.87
2023-08-29T01:48:18.068Z,99969.75
2023-08-29T01:51:25.351Z,99984.52
2023-08-29T01:54:32.423Z,99980.55
2023-08-29T01:57:39.653Z,99992.30
2023-08-29T02:00:47.576Z,99986.45
2023-08-29T02:03:53.136Z,99984.22
2023-08-29T02:07:00.354Z,99994.55
2023-08-29T02:10:05.482Z,99995.36
2023-08-29T02:13:10.738Z,99998.47
2023-08-29T02:16:19.468Z,99979.23
2023-08-29T02:19:25.425Z,99983.41
2023-08-29T02:22:31.597Z,99996.23
2023-08-29T02:25:37.757Z,99992.05
2023-08-29T02:28:45.040Z,99979.02
2023-08-29T02:31:50.902Z,99973.18
2023-08-29T02:34:57.586Z,99978.78
2023-08-29T02:38:07.062Z,99979.89
2023-08-29T02:41:12.357Z,99970.94
2023-08-29T02:44:18.214Z,99969.80
2023-08-29T02:47:24.810Z,99978.43
2023-08-29T02:50:30.184Z,99980.91
2023-08-29T02:53:38.339Z,99981.42
2023-08-29T02:56:44.292Z,99981.67
2023-08-29T02:59:49.259Z,99989.17
2023-08-29T03:02:55.750Z,99993.63
2023-08-29T03:06:12.697Z,100004.77
2023-08-29T03:09:18.995Z,100010.94
2023-08-29T03:12:25.827Z,100019.63
2023-08-29T03:15:31.280Z,100028.00
2023-08-29T03:18:38.413Z,100031.92
2023-08-29T03:21:44.268Z,100028.30
2023-08-29T03:24:50.212Z,100041.16
2023-08-29T03:27:58.087Z,100042.30
2023-08-29T03:31:03.782Z,100050.39
2023-08-29T03:34:10.712Z,100045.09
2023-08-29T03:37:16.912Z,100054.34
2023-08-29T03:40:25.628Z,100062.75
2023-08-29T03:43:33.155Z,100065.56
2023-08-29T03:46:41.694Z,100067.55
2023-08-29T03:49:49.880Z,100072.34
2023-08-29T03:52:55.532Z,100069.61
2023-08-29T03:56:00.782Z,100070.48
2023-08-29T03:59:08.569Z,100074.14
2023-08-29T04:02:16.556Z,100070.52
2023-08-29T04:05:28.179Z,100062.47
2023-08-29T04:08:34.434Z,100073.09
2023-08-29T04:11:39.669Z,100068.39
2023-08-29T04:14:44.724Z,100079.34
2023-08-29T04:17:50.503Z,100073.23
2023-08-29T04:20:50.715Z,100074.10
2023-08-29T04:23:43.556Z,100066.87
2023-08-29T04:26:48.279Z,100071.69
2023-08-29T04:29:54.750Z,100072.84
2023-08-29T04:33:01.101Z,100069.84
2023-08-29T04:36:07.887Z,100071.56
2023-08-29T04:39:14.464Z,100075.54
2023-08-29T04:42:23.538Z,100071.10
2023-08-29T04:45:28.958Z,100077.83
2023-08-29T04:48:33.708Z,100081.25
2023-08-29T04:51:39.335Z,100081.59
2023-08-29T04:54:45.171Z,100087.79
2023-08-29T04:57:50.301Z,100083.39
2023-08-29T05:00:56.567Z,100080.11
2023-08-29T05:04:03.196Z,100081.30
2023-08-29T05:07:08.057Z,100081.90
2023-08-29T05:10:13.191Z,100085.64
2023-08-29T05:13:19.563Z,100091.28
2023-08-29T05:16:25.352Z,100094.44
2023-08-29T05:19:31.625Z,100095.08
2023-08-29T05:22:37.528Z,100095.67
2023-08-29T05:25:43.448Z,100091.25
2023-08-29T05:28:49.926Z,100101.08
2023-08-29T05:31:55.820Z,100100.58
2023-08-29T05:35:01.424Z,100102.33
2023-08-29T05:38:07.850Z,100102.68
2023-08-29T05:41:14.090Z,100100.77
2023-08-29T05:44:20.610Z,100103.91
2023-08-29T05:47:25.713Z,100102.27
2023-08-29T05:50:30.646Z,100103.16
2023-08-29T05:53:35.880Z,100108.23
2023-08-29T05:56:41.327Z,100116.94
2023-08-29T05:59:48.579Z,100125.06
2023-08-29T06:02:55.949Z,100125.36
2023-08-29T06:06:07.079Z,100131.53
2023-08-29T06:09:14.631Z,100126.30
2023-08-29T06:12:39.266Z,100125.22
2023-08-29T06:15:45.088Z,100116.30
2023-08-29T06:18:51.178Z,100124.45
2023-08-29T06:21:57.164Z,100117.47
2023-08-29T06:25:02.622Z,100120.00
2023-08-29T06:28:08.953Z,100120.62
2023-08-29T06:31:22.590Z,100112.23
2023-08-29T06:34:28.767Z,100114.45
2023-08-29T06:37:35.311Z,100124.28
2023-08-29T06:40:41.917Z,100118.09
2023-08-29T06:43:48.625Z,100127.09
2023-08-29T06:46:54.605Z,100125.12
2023-08-29T06:50:01.045Z,100125.39
2023-08-29T06:53:25.192Z,100117.53
2023-08-29T06:56:31.407Z,100115.30
2023-08-29T06:59:37.098Z,100118.09
2023-08-29T07:02:42.350Z,100120.59
2023-08-29T07:05:49.950Z,100113.58
2023-08-29T07:09:13.840Z,100116.66
2023-08-29T07:12:37.116Z,100110.20
2023-08-29T07:15:42.142Z,100109.33
2023-08-29T07:18:47.947Z,100106.80
2023-08-29T07:21:56.233Z,100111.82
2023-08-29T07:25:03.824Z,100112.38
2023-08-29T07:28:09.650Z,100110.38
2023-08-29T07:31:34.159Z,100110.07
2023-08-29T07:34:58.016Z,100110.91
2023-08-29T07:38:05.818Z,100115.66
2023-08-29T07:41:13.964Z,100117.28
2023-08-29T07:44:20.926Z,100110.21
2023-08-29T07:47:26.283Z,100123.66
2023-08-29T07:50:31.975Z,100119.97
2023-08-29T07:53:39.817Z,100121.11
2023-08-29T07:56:48.739Z,100128.67
2023-08-29T07:59:54.729Z,100131.72
2023-08-29T08:03:03.578Z,100133.36
2023-08-29T08:06:09.613Z,100128.59
2023-08-29T08:09:17.333Z,100128.27
2023-08-29T08:12:22.818Z,100129.28
2023-08-29T08:15:30.041Z,100126.96
2023-08-29T08:18:35.724Z,100131.95
2023-08-29T08:21:43.578Z,100125.11
2023-08-29T08:24:49.105Z,100125.33
2023-08-29T08:27:58.278Z,100123.02
2023-08-29T08:31:04.264Z,100118.16
2023-08-29T08:34:11.449Z,100118.63
2023-08-29T08:37:18.059Z,100121.05
2023-08-29T08:40:26.362Z,100121.27
2023-08-29T08:43:31.775Z,100122.88
2023-08-29T08:46:54.860Z,100126.20
2023-08-29T08:50:18.600Z,100117.12
2023-08-29T08:53:42.415Z,100117.61
2023-08-29T08:56:47.736Z,100117.52
2023-08-29T08:59:54.803Z,100113.74
2023-08-29T09:03:00.075Z,100113.74
2023-08-29T09:06:12.147Z,100113.38
2023-08-29T09:09:37.472Z,100109.94
2023-08-29T09:12:42.971Z,100115.72
2023-08-29T09:15:50.701Z,100110.81
2023-08-29T09:19:00.175Z,100116.92
2023-08-29T09:22:06.583Z,100107.76
2023-08-29T09:25:20.211Z,100111.56
2023-08-29T09:28:27.257Z,100115.10
2023-08-29T09:31:32.629Z,100101.18
2023-08-29T09:34:46.495Z,100103.15
2023-08-29T09:38:01.200Z,100103.15
2023-08-29T09:41:07.157Z,100099.38
2023-08-29T09:44:12.489Z,100098.14
2023-08-29T09:47:24.322Z,100103.08
2023-08-29T09:50:32.569Z,100097.03
2023-08-29T09:53:38.026Z,100089.33
2023-08-29T09:56:43.778Z,100092.69
2023-08-29T09:59:50.781Z,100090.81
2023-08-29T10:02:58.893Z,100089.78
2023-08-29T10:06:05.498Z,100098.11
2023-08-29T10:09:13.847Z,100100.87
2023-08-29T10:12:18.702Z,100099.83
2023-08-29T10:19:34.945Z,100082.55
2023-08-29T10:22:43.936Z,100098.43
2023-08-29T10:25:49.018Z,100098.47
2023-08-29T10:28:54.361Z,100105.40
2023-08-29T10:32:00.641Z,100107.23
2023-08-29T10:35:00.584Z,100111.16
2023-08-29T10:37:53.371Z,100110.73
2023-08-29T10:40:59.316Z,100116.25
2023-08-29T10:44:05.897Z,100121.23
2023-08-29T10:47:31.950Z,100108.92
2023-08-29T10:50:38.874Z,100106.80
2023-08-29T10:53:44.774Z,100101.80
2023-08-29T10:57:00.661Z,100090.64
2023-08-29T11:00:07.323Z,100099.02
2023-08-29T11:03:14.349Z,100096.27
2023-08-29T11:06:20.777Z,100096.92
2023-08-29T11:09:38.031Z,100102.06
2023-08-29T11:12:43.482Z,100102.44
2023-08-29T11:16:11.000Z,100103.35
2023-08-29T11:19:22.554Z,100102.53
2023-08-29T11:22:31.177Z,100107.66
2023-08-29T11:25:38.672Z,100103.28
2023-08-29T11:28:45.360Z,100111.02
2023-08-29T11:31:56.978Z,100106.11
2023-08-29T11:35:07.497Z,100112.85
2023-08-29T11:38:15.416Z,100101.68
2023-08-29T11:41:35.529Z,100102.77
2023-08-29T11:45:01.993Z,100102.63
2023-08-29T11:47:42.865Z,100107.64
2023-08-29T11:50:51.603Z,100107.41
2023-08-29T11:53:56.926Z,100099.28
2023-08-29T11:57:04.126Z,100094.31
2023-08-29T12:00:12.819Z,100087.55
2023-08-29T12:03:19.062Z,100084.67
2023-08-29T12:06:28.468Z,100083.31
2023-08-29T12:09:39.418Z,100081.84
2023-08-29T12:12:48.752Z,100080.76
2023-08-29T12:15:55.015Z,100074.79
2023-08-29T12:19:01.162Z,100083.45
2023-08-29T12:22:10.308Z,100074.13
2023-08-29T12:25:14.793Z,100072.11
2023-08-29T12:28:22.996Z,100075.27
2023-08-29T12:31:29.335Z,100076.69
2023-08-29T12:34:35.376Z,100071.63
2023-08-29T12:37:40.993Z,100071.16
2023-08-29T12:40:47.119Z,100070.26
2023-08-29T12:43:53.322Z,100072.15
2023-08-29T12:47:00.345Z,100066.34
2023-08-29T12:50:08.450Z,100073.01
2023-08-29T12:53:14.824Z,100071.73
2023-08-29T12:56:21.022Z,100066.72
2023-08-29T12:59:25.561Z,100065.45
2023-08-29T13:02:31.594Z,100066.06
2023-08-29T13:05:37.925Z,100064.08
2023-08-29T13:08:45.160Z,100066.91
2023-08-29T13:11:51.330Z,100069.23
2023-08-29T13:14:58.007Z,100068.47
2023-08-29T13:18:02.710Z,100077.48
2023-08-29T13:21:08.878Z,100069.83
2023-08-29T13:24:15.216Z,100070.64
2023-08-29T13:27:20.174Z,100075.17
2023-08-29T13:30:27.061Z,100080.84
2023-08-29T13:33:32.669Z,100070.41
2023-08-29T13:36:40.709Z,100070.30
2023-08-29T13:39:48.926Z,100074.79
2023-08-29T13:42:55.007Z,100082.72
2023-08-29T13:46:00.941Z,100076.53
2023-08-29T13:49:07.195Z,100073.19
2023-08-29T13:52:16.205Z,100066.42
2023-08-29T13:55:22.800Z,100071.61
2023-08-29T13:58:27.947Z,100069.02
2023-08-29T14:01:33.703Z,100078.36
2023-08-29T14:04:40.523Z,100076.19
2023-08-29T14:07:46.158Z,100076.64
2023-08-29T14:10:51.743Z,100076.12
2023-08-29T14:13:57.801Z,100076.78
2023-08-29T14:17:03.506Z,100074.59
2023-08-29T14:20:10.439Z,100071.25
2023-08-29T14:23:15.960Z,100071.33
2023-08-29T14:26:26.407Z,100071.05
2023-08-29T14:29:33.020Z,100072.55
2023-08-29T14:32:37.865Z,100075.10
2023-08-29T14:35:46.065Z,100070.69
2023-08-29T14:38:52.050Z,100076.38
2023-08-29T14:42:00.123Z,100069.05
2023-08-29T14:45:07.530Z,100075.36
2023-08-29T14:48:13.890Z,100072.01
2023-08-29T14:51:23.204Z,100069.58
2023-08-29T14:54:28.817Z,100068.78
2023-08-29T14:57:34.512Z,100061.86
2023-08-29T15:00:42.520Z,100053.81
2023-08-29T15:03:48.279Z,100054.83
2023-08-29T15:06:54.779Z,100059.16
2023-08-29T15:10:01.532Z,100060.89
2023-08-29T15:13:08.341Z,100050.28
2023-08-29T15:16:19.018Z,100056.59
2023-08-29T15:19:25.993Z,100053.24
2023-08-29T15:22:33.878Z,100045.08
2023-08-29T15:25:41.168Z,100047.55
2023-08-29T15:28:47.353Z,100051.39
2023-08-29T15:31:54.790Z,100047.35
2023-08-29T15:35:01.453Z,100050.91
2023-08-29T15:38:06.706Z,100054.42
2023-08-29T15:41:13.097Z,100054.80
2023-08-29T15:44:18.008Z,100054.89
2023-08-29T15:47:23.655Z,100052.78
2023-08-29T15:50:29.893Z,100050.42
2023-08-29T15:53:35.468Z,100050.04
2023-08-29T15:56:43.542Z,100056.70
2023-08-29T15:59:50.176Z,100054.33
2023-08-29T16:02:57.914Z,100063.81
2023-08-29T16:06:05.261Z,100061.51
2023-08-29T16:09:11.532Z,100074.09
2023-08-29T16:12:19.904Z,100073.99
2023-08-29T16:15:26.270Z,100074.41
2023-08-29T16:18:33.400Z,100076.84
2023-08-29T16:21:39.722Z,100076.44
2023-08-29T16:24:46.545Z,100081.69
2023-08-29T16:27:52.892Z,100082.41
2023-08-29T16:30:58.235Z,100094.34
2023-08-29T16:34:03.755Z,100103.90
2023-08-29T16:37:09.169Z,100103.90
2023-08-29T16:40:15.772Z,100110.44
2023-08-29T16:43:21.762Z,100111.13
2023-08-29T16:46:26.985Z,100114.28
2023-08-29T16:49:33.480Z,100110.15
2023-08-29T16:52:38.757Z,100119.23
2023-08-29T16:55:46.935Z,100126.62
2023-08-29T16:58:52.987Z,100127.55
2023-08-29T17:01:58.992Z,100122.25
2023-08-29T17:05:07.686Z,100129.64
2023-08-29T17:08:13.550Z,100132.81
2023-08-29T17:11:20.589Z,100138.16
2023-08-29T17:14:29.058Z,100141.58
2023-08-29T17:17:35.134Z,100147.25
2023-08-29T17:20:40.651Z,100149.23
2023-08-29T17:23:46.731Z,100149.55
2023-08-29T17:26:53.296Z,100154.92
2023-08-29T17:29:59.016Z,100153.56
2023-08-29T17:33:06.273Z,100157.79
2023-08-29T17:36:14.346Z,100156.42
2023-08-29T17:39:22.047Z,100155.55
2023-08-29T17:42:27.700Z,100161.77
2023-08-29T17:45:33.722Z,100162.92
2023-08-29T17:48:40.478Z,100162.36
2023-08-29T17:51:46.887Z,100160.97
2023-08-29T17:54:52.510Z,100166.59
2023-08-29T17:57:58.572Z,100162.95
2023-08-29T18:01:04.640Z,100161.28
2023-08-29T18:04:15.657Z,100165.50
2023-08-29T18:07:22.516Z,100163.83
2023-08-29T18:10:31.697Z,100171.70
2023-08-29T18:13:38.312Z,100166.37
2023-08-29T18:16:44.298Z,100167.19
2023-08-29T18:19:53.436Z,100172.25
2023-08-29T18:22:59.880Z,100166.33
2023-08-29T18:26:14.468Z,100168.88
2023-08-29T18:29:19.929Z,100180.95
2023-08-29T18:32:25.679Z,100172.52
2023-08-29T18:35:31.661Z,100170.56
2023-08-29T18:38:39.211Z,100177.29
2023-08-29T18:41:45.887Z,100170.84
2023-08-29T18:44:55.458Z,100169.70
2023-08-29T18:48:04.760Z,100164.08
2023-08-29T18:51:10.593Z,100161.56
2023-08-29T18:54:16.273Z,100156.80
2023-08-29T18:57:24.198Z,100166.87
2023-08-29T19:00:32.691Z,100163.77
2023-08-29T19:03:39.763Z,100157.91
2023-08-29T19:06:48.832Z,100155.05
2023-08-29T19:09:55.184Z,100156.18
2023-08-29T19:13:02.872Z,100162.04
2023-08-29T19:16:11.045Z,100153.38
2023-08-29T19:19:17.029Z,100151.38
2023-08-29T19:22:24.489Z,100151.94
2023-08-29T19:25:30.410Z,100152.46
2023-08-29T19:28:38.232Z,100148.81
2023-08-29T19:31:43.886Z,100154.97
2023-08-29T19:34:50.311Z,100151.88
2023-08-29T19:37:56.270Z,100147.68
2023-08-29T19:41:01.713Z,100147.97
2023-08-29T19:44:09.068Z,100148.21
2023-08-29T19:47:14.547Z,100143.16
2023-08-29T19:50:21.047Z,100148.77
2023-08-29T19:53:26.873Z,100155.19
2023-08-29T19:56:32.943Z,100156.84
2023-08-29T19:59:39.320Z,100152.64
2023-08-29T20:02:47.580Z,100156.84
2023-08-29T20:05:54.095Z,100159.34
2023-08-29T20:09:01.294Z,100159.86
2023-08-29T20:12:07.712Z,100164.30
2023-08-29T20:15:12.593Z,100170.17
2023-08-29T20:18:18.960Z,100167.08
2023-08-29T20:21:25.920Z,100180.19
2023-08-29T20:24:34.559Z,100180.19
2023-08-29T20:27:39.597Z,100186.05
2023-08-29T20:30:51.744Z,100186.33
2023-08-29T20:33:59.728Z,100191.34
2023-08-29T20:37:05.252Z,100190.76
2023-08-29T20:40:12.544Z,100187.65
2023-08-29T20:43:17.499Z,100184.54
2023-08-29T20:46:22.741Z,100191.81
2023-08-29T20:49:32.076Z,100194.30
2023-08-29T20:52:38.371Z,100194.84
2023-08-29T20:55:44.182Z,100194.83
2023-08-29T20:58:50.785Z,100188.66
2023-08-29T21:01:56.924Z,100188.89
2023-08-29T21:05:05.421Z,100194.20
2023-08-29T21:08:12.251Z,100195.02
2023-08-29T21:11:18.783Z,100193.84
2023-08-29T21:14:24.967Z,100192.67
2023-08-29T21:17:32.361Z,100197.64
2023-08-29T21:20:40.314Z,100195.39
2023-08-29T21:23:47.965Z,100205.16
2023-08-29T21:26:56.675Z,100200.38
2023-08-29T21:30:02.973Z,100199.52
2023-08-29T21:33:08.952Z,100201.73
2023-08-29T21:36:15.272Z,100205.33
2023-08-29T21:39:23.334Z,100203.34
2023-08-29T21:42:29.130Z,100211.73
2023-08-29T21:45:35.397Z,100213.93
2023-08-29T21:48:40.957Z,100213.64
2023-08-29T21:51:47.535Z,100217.80
2023-08-29T21:54:54.919Z,100206.87
2023-08-29T21:58:01.072Z,100215.47
2023-08-29T22:01:09.092Z,100216.81
2023-08-29T22:04:17.006Z,100217.61
2023-08-29T22:07:25.063Z,100217.86
2023-08-29T22:10:30.123Z,100212.23
2023-08-29T22:13:35.958Z,100216.67
2023-08-29T22:16:41.482Z,100220.81
2023-08-29T22:19:48.027Z,100230.84
2023-08-29T22:22:55.025Z,100236.66
2023-08-29T22:26:02.807Z,100240.52
2023-08-29T22:29:08.461Z,100242.98
2023-08-29T22:32:14.311Z,100245.22
2023-08-29T22:35:21.400Z,100237.05
2023-08-29T22:38:28.214Z,100245.41
2023-08-29T22:41:35.658Z,100241.70
2023-08-29T22:44:41.168Z,100245.00
2023-08-29T22:47:49.212Z,100246.86
2023-08-29T22:50:56.413Z,100242.06
2023-08-29T22:54:01.548Z,100241.73
2023-08-29T22:57:07.816Z,100246.70
2023-08-29T23:00:14.817Z,100249.47
2023-08-29T23:03:21.085Z,100252.78
2023-08-29T23:06:28.630Z,100247.41
2023-08-29T23:09:35.095Z,100249.31
2023-08-29T23:12:40.788Z,100253.42
2023-08-29T23:15:45.639Z,100248.08
2023-08-29T23:18:51.977Z,100242.70
2023-08-29T23:21:57.241Z,100251.55
2023-08-29T23:25:03.181Z,100247.61
2023-08-29T23:28:08.182Z,100253.39
2023-08-29T23:31:15.124Z,100249.44
2023-08-29T23:34:21.695Z,100253.81
2023-08-29T23:37:28.768Z,100248.16
2023-08-29T23:40:34.738Z,100250.92
2023-08-29T23:43:40.040Z,100253.69
2023-08-29T23:46:45.116Z,100251.63
2023-08-29T23:49:52.617Z,100255.78
2023-08-29T23:52:58.779Z,100259.37
2023-08-29T23:56:05.089Z,100257.41
2023-08-29T23:59:12.073Z,100262.33
